KLFT/LFT METAR and TAF weather

Enter ICAO airport designator
Station Type Date Time Source
KLFT METAR 2019/12/08 13:53 UTC NOAA

KLFT 081353Z 00000KT 3SM BR CLR 09/08 A3016 RMK AO2 SLP212 T00890083 $


Station Type Date Time Source
KLFT Decoded METAR 2019/12/08 13:53 UTC NOAA

LAFAYETTE REGIONAL AIRPORT, LA, United States (KLFT) 30-12N 092-00W 11M
Dec 08, 2019 - 08:53 AM EST / 2019.12.08 1353 UTC
Wind: Calm:0
Visibility: 3 mile(s):0
Sky conditions: clear
Weather: mist
Temperature: 48.0 F (8.9 C)
Dew Point: 46.9 F (8.3 C)
Relative Humidity: 96%
Pressure (altimeter): 30.16 in. Hg (1021 hPa)
ob: KLFT 081353Z 00000KT 3SM BR CLR 09/08 A3016 RMK AO2 SLP212 T00890083
cycle: 14

Station Type Date Time Source
KLFT TAF 2019/12/08 12:39 UTC NOAA

TAF KLFT 081137Z 0812/0912 04004KT 6SM BR SKC
TEMPO 0812/0813 4SM BR
FM081400 VRB04KT P6SM BKN020
FM081600 18007KT P6SM SCT060
FM090700 18005KT P6SM OVC015

Example: see airport list